sensor_id;sensor_type;location;lat;lon;timestamp;P1;durP1;ratioP1;P2;durP2;ratioP2
6665;SDS011;3369;49.906;8.598;2023-09-07T00:01:43;4.17;;;3.77;;
6665;SDS011;3369;49.906;8.598;2023-09-07T00:04:09;3.87;;;3.33;;
6665;SDS011;3369;49.906;8.598;2023-09-07T00:06:35;3.80;;;3.50;;
6665;SDS011;3369;49.906;8.598;2023-09-07T00:09:01;3.57;;;2.93;;
6665;SDS011;3369;49.906;8.598;2023-09-07T00:11:27;3.63;;;3.33;;
6665;SDS011;3369;49.906;8.598;2023-09-07T00:13:53;3.43;;;3.13;;
6665;SDS011;3369;49.906;8.598;2023-09-07T00:16:18;3.10;;;2.90;;
6665;SDS011;3369;49.906;8.598;2023-09-07T00:18:44;3.27;;;2.97;;
6665;SDS011;3369;49.906;8.598;2023-09-07T00:21:10;3.47;;;3.17;;
6665;SDS011;3369;49.906;8.598;2023-09-07T00:23:35;3.20;;;2.90;;
6665;SDS011;3369;49.906;8.598;2023-09-07T00:26:01;3.80;;;3.50;;
6665;SDS011;3369;49.906;8.598;2023-09-07T00:28:27;3.80;;;3.17;;
6665;SDS011;3369;49.906;8.598;2023-09-07T00:30:53;4.73;;;3.27;;
6665;SDS011;3369;49.906;8.598;2023-09-07T00:33:20;3.60;;;3.30;;
6665;SDS011;3369;49.906;8.598;2023-09-07T00:35:45;3.60;;;3.30;;
6665;SDS011;3369;49.906;8.598;2023-09-07T00:38:11;4.97;;;3.70;;
6665;SDS011;3369;49.906;8.598;2023-09-07T00:40:36;4.50;;;3.43;;
6665;SDS011;3369;49.906;8.598;2023-09-07T00:43:02;3.57;;;3.27;;
6665;SDS011;3369;49.906;8.598;2023-09-07T00:45:29;3.43;;;3.13;;
6665;SDS011;3369;49.906;8.598;2023-09-07T00:47:55;3.60;;;3.30;;
6665;SDS011;3369;49.906;8.598;2023-09-07T00:50:21;3.20;;;2.90;;
6665;SDS011;3369;49.906;8.598;2023-09-07T00:52:47;3.90;;;3.30;;
6665;SDS011;3369;49.906;8.598;2023-09-07T00:55:13;4.73;;;3.50;;
6665;SDS011;3369;49.906;8.598;2023-09-07T00:57:39;3.90;;;3.53;;
6665;SDS011;3369;49.906;8.598;2023-09-07T01:00:07;5.30;;;3.67;;
6665;SDS011;3369;49.906;8.598;2023-09-07T01:02:34;3.80;;;3.03;;
6665;SDS011;3369;49.906;8.598;2023-09-07T01:05:01;4.07;;;3.67;;
6665;SDS011;3369;49.906;8.598;2023-09-07T01:07:32;3.90;;;3.47;;
6665;SDS011;3369;49.906;8.598;2023-09-07T01:10:05;4.07;;;3.67;;
6665;SDS011;3369;49.906;8.598;2023-09-07T01:12:33;3.63;;;3.33;;
6665;SDS011;3369;49.906;8.598;2023-09-07T01:14:58;3.97;;;3.67;;
6665;SDS011;3369;49.906;8.598;2023-09-07T01:17:24;3.50;;;3.20;;
6665;SDS011;3369;49.906;8.598;2023-09-07T01:19:50;3.87;;;3.50;;
6665;SDS011;3369;49.906;8.598;2023-09-07T01:22:19;3.93;;;3.20;;
6665;SDS011;3369;49.906;8.598;2023-09-07T01:24:49;3.23;;;3.03;;
6665;SDS011;3369;49.906;8.598;2023-09-07T01:27:17;3.53;;;3.23;;
6665;SDS011;3369;49.906;8.598;2023-09-07T01:29:43;3.80;;;3.50;;
6665;SDS011;3369;49.906;8.598;2023-09-07T01:32:09;3.47;;;3.17;;
6665;SDS011;3369;49.906;8.598;2023-09-07T01:34:35;3.10;;;2.80;;
6665;SDS011;3369;49.906;8.598;2023-09-07T01:37:03;3.57;;;3.27;;
6665;SDS011;3369;49.906;8.598;2023-09-07T01:39:29;3.40;;;3.10;;
6665;SDS011;3369;49.906;8.598;2023-09-07T01:41:54;4.03;;;2.90;;
6665;SDS011;3369;49.906;8.598;2023-09-07T01:44:20;4.00;;;3.60;;
6665;SDS011;3369;49.906;8.598;2023-09-07T01:46:45;4.93;;;3.07;;
6665;SDS011;3369;49.906;8.598;2023-09-07T01:49:11;3.77;;;3.47;;
6665;SDS011;3369;49.906;8.598;2023-09-07T01:51:37;3.53;;;3.23;;
6665;SDS011;3369;49.906;8.598;2023-09-07T01:54:02;3.90;;;3.60;;
6665;SDS011;3369;49.906;8.598;2023-09-07T01:56:29;5.03;;;4.37;;
6665;SDS011;3369;49.906;8.598;2023-09-07T01:58:54;4.47;;;3.77;;
6665;SDS011;3369;49.906;8.598;2023-09-07T02:01:29;5.30;;;4.30;;
6665;SDS011;3369;49.906;8.598;2023-09-07T02:03:56;5.67;;;3.87;;
6665;SDS011;3369;49.906;8.598;2023-09-07T02:06:22;4.47;;;4.07;;
6665;SDS011;3369;49.906;8.598;2023-09-07T02:08:48;4.47;;;4.07;;
6665;SDS011;3369;49.906;8.598;2023-09-07T02:11:13;4.77;;;4.30;;
6665;SDS011;3369;49.906;8.598;2023-09-07T02:13:43;3.93;;;3.57;;
6665;SDS011;3369;49.906;8.598;2023-09-07T02:16:09;4.07;;;3.67;;
6665;SDS011;3369;49.906;8.598;2023-09-07T02:18:35;4.00;;;3.60;;
6665;SDS011;3369;49.906;8.598;2023-09-07T02:21:03;4.33;;;3.93;;
6665;SDS011;3369;49.906;8.598;2023-09-07T02:23:29;4.70;;;3.93;;
6665;SDS011;3369;49.906;8.598;2023-09-07T02:25:58;4.30;;;3.90;;
6665;SDS011;3369;49.906;8.598;2023-09-07T02:28:24;3.83;;;3.50;;
6665;SDS011;3369;49.906;8.598;2023-09-07T02:30:51;4.13;;;3.40;;
6665;SDS011;3369;49.906;8.598;2023-09-07T02:33:16;4.20;;;3.77;;
6665;SDS011;3369;49.906;8.598;2023-09-07T02:35:42;3.60;;;3.30;;
6665;SDS011;3369;49.906;8.598;2023-09-07T02:38:08;3.90;;;3.60;;
6665;SDS011;3369;49.906;8.598;2023-09-07T02:40:39;3.50;;;3.20;;
6665;SDS011;3369;49.906;8.598;2023-09-07T02:43:08;3.77;;;3.47;;
6665;SDS011;3369;49.906;8.598;2023-09-07T02:45:34;3.30;;;3.00;;
6665;SDS011;3369;49.906;8.598;2023-09-07T02:48:00;3.87;;;3.50;;
6665;SDS011;3369;49.906;8.598;2023-09-07T02:50:25;3.70;;;3.40;;
6665;SDS011;3369;49.906;8.598;2023-09-07T02:52:53;3.67;;;3.37;;
6665;SDS011;3369;49.906;8.598;2023-09-07T02:55:18;4.03;;;3.63;;
6665;SDS011;3369;49.906;8.598;2023-09-07T02:57:44;4.00;;;3.60;;
6665;SDS011;3369;49.906;8.598;2023-09-07T03:00:10;3.87;;;3.57;;
6665;SDS011;3369;49.906;8.598;2023-09-07T03:02:36;5.37;;;4.13;;
6665;SDS011;3369;49.906;8.598;2023-09-07T03:05:02;5.80;;;4.10;;
6665;SDS011;3369;49.906;8.598;2023-09-07T03:07:32;4.17;;;3.77;;
6665;SDS011;3369;49.906;8.598;2023-09-07T03:09:58;4.53;;;4.10;;
6665;SDS011;3369;49.906;8.598;2023-09-07T03:12:24;4.40;;;4.00;;
6665;SDS011;3369;49.906;8.598;2023-09-07T03:14:50;4.20;;;3.80;;
6665;SDS011;3369;49.906;8.598;2023-09-07T03:17:16;3.90;;;3.50;;
6665;SDS011;3369;49.906;8.598;2023-09-07T03:19:42;4.00;;;3.67;;
6665;SDS011;3369;49.906;8.598;2023-09-07T03:22:08;3.77;;;3.43;;
6665;SDS011;3369;49.906;8.598;2023-09-07T03:24:34;4.40;;;4.00;;
6665;SDS011;3369;49.906;8.598;2023-09-07T03:27:00;3.50;;;3.20;;
6665;SDS011;3369;49.906;8.598;2023-09-07T03:29:26;3.97;;;3.60;;
6665;SDS011;3369;49.906;8.598;2023-09-07T03:31:51;5.43;;;3.97;;
6665;SDS011;3369;49.906;8.598;2023-09-07T03:34:17;5.03;;;4.43;;
6665;SDS011;3369;49.906;8.598;2023-09-07T03:36:44;5.40;;;4.50;;
6665;SDS011;3369;49.906;8.598;2023-09-07T03:39:10;4.30;;;3.90;;
6665;SDS011;3369;49.906;8.598;2023-09-07T03:41:35;4.30;;;3.97;;
6665;SDS011;3369;49.906;8.598;2023-09-07T03:44:01;4.27;;;3.87;;
6665;SDS011;3369;49.906;8.598;2023-09-07T03:46:27;4.43;;;4.03;;
6665;SDS011;3369;49.906;8.598;2023-09-07T03:48:53;3.83;;;3.53;;
6665;SDS011;3369;49.906;8.598;2023-09-07T03:51:18;4.50;;;4.10;;
6665;SDS011;3369;49.906;8.598;2023-09-07T03:53:44;4.17;;;3.77;;
6665;SDS011;3369;49.906;8.598;2023-09-07T03:56:10;4.60;;;3.90;;
6665;SDS011;3369;49.906;8.598;2023-09-07T03:58:36;4.43;;;4.03;;
6665;SDS011;3369;49.906;8.598;2023-09-07T04:01:02;6.27;;;4.67;;
6665;SDS011;3369;49.906;8.598;2023-09-07T04:03:27;4.47;;;4.07;;
6665;SDS011;3369;49.906;8.598;2023-09-07T04:05:53;5.00;;;4.07;;
6665;SDS011;3369;49.906;8.598;2023-09-07T04:08:19;4.10;;;3.80;;
6665;SDS011;3369;49.906;8.598;2023-09-07T04:10:44;4.27;;;3.87;;
6665;SDS011;3369;49.906;8.598;2023-09-07T04:13:10;4.40;;;4.00;;
6665;SDS011;3369;49.906;8.598;2023-09-07T04:15:42;4.07;;;3.63;;
6665;SDS011;3369;49.906;8.598;2023-09-07T04:18:11;4.07;;;3.70;;
6665;SDS011;3369;49.906;8.598;2023-09-07T04:20:40;4.03;;;3.70;;
6665;SDS011;3369;49.906;8.598;2023-09-07T04:23:06;4.57;;;3.80;;
6665;SDS011;3369;49.906;8.598;2023-09-07T04:25:31;6.70;;;3.93;;
6665;SDS011;3369;49.906;8.598;2023-09-07T04:28:00;4.10;;;3.60;;
6665;SDS011;3369;49.906;8.598;2023-09-07T04:30:26;4.77;;;3.70;;
6665;SDS011;3369;49.906;8.598;2023-09-07T04:32:51;4.53;;;3.77;;
6665;SDS011;3369;49.906;8.598;2023-09-07T04:35:17;4.03;;;3.73;;
6665;SDS011;3369;49.906;8.598;2023-09-07T04:37:43;4.43;;;4.03;;
6665;SDS011;3369;49.906;8.598;2023-09-07T04:40:10;4.33;;;3.93;;
6665;SDS011;3369;49.906;8.598;2023-09-07T04:42:36;5.47;;;4.00;;
6665;SDS011;3369;49.906;8.598;2023-09-07T04:45:03;4.10;;;3.80;;
6665;SDS011;3369;49.906;8.598;2023-09-07T04:47:30;4.17;;;3.77;;
6665;SDS011;3369;49.906;8.598;2023-09-07T04:49:55;4.77;;;4.20;;
6665;SDS011;3369;49.906;8.598;2023-09-07T04:52:21;4.07;;;3.73;;
6665;SDS011;3369;49.906;8.598;2023-09-07T04:54:47;4.03;;;3.70;;
6665;SDS011;3369;49.906;8.598;2023-09-07T04:57:15;3.50;;;3.20;;
6665;SDS011;3369;49.906;8.598;2023-09-07T04:59:42;4.57;;;4.00;;
6665;SDS011;3369;49.906;8.598;2023-09-07T05:02:08;3.87;;;3.47;;
6665;SDS011;3369;49.906;8.598;2023-09-07T05:04:33;4.00;;;3.70;;
6665;SDS011;3369;49.906;8.598;2023-09-07T05:06:59;4.23;;;3.93;;
6665;SDS011;3369;49.906;8.598;2023-09-07T05:09:24;4.17;;;3.87;;
6665;SDS011;3369;49.906;8.598;2023-09-07T05:11:51;3.80;;;3.40;;
6665;SDS011;3369;49.906;8.598;2023-09-07T05:14:17;4.27;;;3.77;;
6665;SDS011;3369;49.906;8.598;2023-09-07T05:16:43;3.57;;;3.33;;
6665;SDS011;3369;49.906;8.598;2023-09-07T05:19:09;3.40;;;3.10;;
6665;SDS011;3369;49.906;8.598;2023-09-07T05:21:34;3.37;;;3.07;;
6665;SDS011;3369;49.906;8.598;2023-09-07T05:24:00;3.97;;;3.63;;
6665;SDS011;3369;49.906;8.598;2023-09-07T05:26:26;3.83;;;3.53;;
6665;SDS011;3369;49.906;8.598;2023-09-07T05:28:51;3.70;;;3.40;;
6665;SDS011;3369;49.906;8.598;2023-09-07T05:31:17;4.00;;;3.70;;
6665;SDS011;3369;49.906;8.598;2023-09-07T05:33:43;6.57;;;3.67;;
6665;SDS011;3369;49.906;8.598;2023-09-07T05:36:08;4.60;;;4.00;;
6665;SDS011;3369;49.906;8.598;2023-09-07T05:38:34;3.93;;;3.47;;
6665;SDS011;3369;49.906;8.598;2023-09-07T05:40:59;4.10;;;3.70;;
6665;SDS011;3369;49.906;8.598;2023-09-07T05:43:25;3.63;;;3.33;;
6665;SDS011;3369;49.906;8.598;2023-09-07T05:45:51;4.27;;;3.83;;
6665;SDS011;3369;49.906;8.598;2023-09-07T05:48:16;3.60;;;3.40;;
6665;SDS011;3369;49.906;8.598;2023-09-07T05:50:42;3.97;;;3.63;;
6665;SDS011;3369;49.906;8.598;2023-09-07T05:53:08;3.80;;;3.40;;
6665;SDS011;3369;49.906;8.598;2023-09-07T05:55:34;3.83;;;3.50;;
6665;SDS011;3369;49.906;8.598;2023-09-07T05:58:03;4.67;;;4.20;;
6665;SDS011;3369;49.906;8.598;2023-09-07T06:00:30;3.83;;;3.50;;
6665;SDS011;3369;49.906;8.598;2023-09-07T06:02:56;5.67;;;3.70;;
6665;SDS011;3369;49.906;8.598;2023-09-07T06:05:22;4.07;;;3.77;;
6665;SDS011;3369;49.906;8.598;2023-09-07T06:07:47;3.70;;;3.40;;
6665;SDS011;3369;49.906;8.598;2023-09-07T06:10:13;4.17;;;3.77;;
6665;SDS011;3369;49.906;8.598;2023-09-07T06:12:39;3.53;;;3.23;;
6665;SDS011;3369;49.906;8.598;2023-09-07T06:15:05;4.50;;;3.77;;
6665;SDS011;3369;49.906;8.598;2023-09-07T06:17:31;3.77;;;3.47;;
6665;SDS011;3369;49.906;8.598;2023-09-07T06:19:57;3.50;;;3.20;;
6665;SDS011;3369;49.906;8.598;2023-09-07T06:22:22;3.73;;;3.43;;
6665;SDS011;3369;49.906;8.598;2023-09-07T06:24:48;3.47;;;3.17;;
6665;SDS011;3369;49.906;8.598;2023-09-07T06:27:14;4.43;;;3.37;;
6665;SDS011;3369;49.906;8.598;2023-09-07T06:29:40;4.00;;;3.70;;
6665;SDS011;3369;49.906;8.598;2023-09-07T06:32:05;3.80;;;3.50;;
6665;SDS011;3369;49.906;8.598;2023-09-07T06:34:31;3.30;;;3.00;;
6665;SDS011;3369;49.906;8.598;2023-09-07T06:36:57;7.37;;;3.60;;
6665;SDS011;3369;49.906;8.598;2023-09-07T06:39:23;3.67;;;3.37;;
6665;SDS011;3369;49.906;8.598;2023-09-07T06:41:48;3.90;;;3.60;;
6665;SDS011;3369;49.906;8.598;2023-09-07T06:44:14;4.63;;;3.37;;
6665;SDS011;3369;49.906;8.598;2023-09-07T06:46:40;3.73;;;3.50;;
6665;SDS011;3369;49.906;8.598;2023-09-07T06:49:06;4.60;;;4.17;;
6665;SDS011;3369;49.906;8.598;2023-09-07T06:51:31;4.13;;;3.83;;
6665;SDS011;3369;49.906;8.598;2023-09-07T06:53:57;4.13;;;3.83;;
6665;SDS011;3369;49.906;8.598;2023-09-07T06:56:23;4.70;;;4.23;;
6665;SDS011;3369;49.906;8.598;2023-09-07T06:58:49;12.00;;;6.17;;
6665;SDS011;3369;49.906;8.598;2023-09-07T07:01:15;7.37;;;5.20;;
6665;SDS011;3369;49.906;8.598;2023-09-07T07:03:40;4.90;;;4.40;;
6665;SDS011;3369;49.906;8.598;2023-09-07T07:06:06;4.27;;;3.87;;
6665;SDS011;3369;49.906;8.598;2023-09-07T07:08:32;4.47;;;4.07;;
6665;SDS011;3369;49.906;8.598;2023-09-07T07:10:58;4.43;;;3.90;;
6665;SDS011;3369;49.906;8.598;2023-09-07T07:13:23;4.97;;;4.03;;
6665;SDS011;3369;49.906;8.598;2023-09-07T07:15:49;4.33;;;4.00;;
6665;SDS011;3369;49.906;8.598;2023-09-07T07:18:15;4.20;;;3.80;;
6665;SDS011;3369;49.906;8.598;2023-09-07T07:20:41;3.50;;;3.30;;
6665;SDS011;3369;49.906;8.598;2023-09-07T07:23:08;3.70;;;3.40;;
6665;SDS011;3369;49.906;8.598;2023-09-07T07:25:35;4.53;;;3.60;;
6665;SDS011;3369;49.906;8.598;2023-09-07T07:28:02;4.60;;;4.20;;
6665;SDS011;3369;49.906;8.598;2023-09-07T07:30:30;4.30;;;3.90;;
6665;SDS011;3369;49.906;8.598;2023-09-07T07:33:01;4.05;;;3.65;;
6665;SDS011;3369;49.906;8.598;2023-09-07T07:35:29;4.43;;;3.47;;
6665;SDS011;3369;49.906;8.598;2023-09-07T07:37:55;4.20;;;3.80;;
6665;SDS011;3369;49.906;8.598;2023-09-07T07:40:21;3.80;;;3.40;;
6665;SDS011;3369;49.906;8.598;2023-09-07T07:42:47;3.93;;;3.63;;
6665;SDS011;3369;49.906;8.598;2023-09-07T07:45:13;3.78;;;3.45;;
6665;SDS011;3369;49.906;8.598;2023-09-07T07:47:40;4.40;;;4.05;;
6665;SDS011;3369;49.906;8.598;2023-09-07T07:50:06;4.70;;;3.83;;
6665;SDS011;3369;49.906;8.598;2023-09-07T07:52:32;3.78;;;3.20;;
6665;SDS011;3369;49.906;8.598;2023-09-07T07:54:58;4.45;;;4.05;;
6665;SDS011;3369;49.906;8.598;2023-09-07T07:57:24;4.20;;;3.75;;
6665;SDS011;3369;49.906;8.598;2023-09-07T07:59:50;4.30;;;3.90;;
6665;SDS011;3369;49.906;8.598;2023-09-07T08:02:15;4.45;;;3.58;;
6665;SDS011;3369;49.906;8.598;2023-09-07T08:04:41;3.63;;;3.33;;
6665;SDS011;3369;49.906;8.598;2023-09-07T08:07:06;4.03;;;3.42;;
6665;SDS011;3369;49.906;8.598;2023-09-07T08:09:33;4.05;;;3.75;;
6665;SDS011;3369;49.906;8.598;2023-09-07T08:11:59;4.10;;;3.80;;
6665;SDS011;3369;49.906;8.598;2023-09-07T08:14:28;3.35;;;3.15;;
6665;SDS011;3369;49.906;8.598;2023-09-07T08:16:55;3.85;;;3.45;;
6665;SDS011;3369;49.906;8.598;2023-09-07T08:19:22;4.07;;;3.30;;
6665;SDS011;3369;49.906;8.598;2023-09-07T08:21:48;4.35;;;3.95;;
6665;SDS011;3369;49.906;8.598;2023-09-07T08:24:14;5.32;;;3.80;;
6665;SDS011;3369;49.906;8.598;2023-09-07T08:26:39;6.10;;;3.88;;
6665;SDS011;3369;49.906;8.598;2023-09-07T08:29:05;4.20;;;3.80;;
6665;SDS011;3369;49.906;8.598;2023-09-07T08:31:32;5.38;;;3.58;;
6665;SDS011;3369;49.906;8.598;2023-09-07T08:34:02;3.85;;;3.55;;
6665;SDS011;3369;49.906;8.598;2023-09-07T08:36:29;4.65;;;4.15;;
6665;SDS011;3369;49.906;8.598;2023-09-07T08:38:59;6.25;;;4.05;;
6665;SDS011;3369;49.906;8.598;2023-09-07T08:41:26;3.85;;;3.55;;
6665;SDS011;3369;49.906;8.598;2023-09-07T08:43:53;4.00;;;3.67;;
6665;SDS011;3369;49.906;8.598;2023-09-07T08:46:20;3.90;;;3.50;;
6665;SDS011;3369;49.906;8.598;2023-09-07T08:48:48;4.38;;;3.97;;
6665;SDS011;3369;49.906;8.598;2023-09-07T08:51:18;3.88;;;3.42;;
6665;SDS011;3369;49.906;8.598;2023-09-07T08:53:45;3.72;;;3.42;;
6665;SDS011;3369;49.906;8.598;2023-09-07T08:56:14;4.07;;;3.67;;
6665;SDS011;3369;49.906;8.598;2023-09-07T08:58:41;4.57;;;3.70;;
6665;SDS011;3369;49.906;8.598;2023-09-07T09:01:07;3.67;;;3.33;;
6665;SDS011;3369;49.906;8.598;2023-09-07T09:03:34;5.35;;;3.58;;
6665;SDS011;3369;49.906;8.598;2023-09-07T09:06:00;9.10;;;4.13;;
6665;SDS011;3369;49.906;8.598;2023-09-07T09:08:27;3.55;;;3.25;;
6665;SDS011;3369;49.906;8.598;2023-09-07T09:11:00;4.15;;;3.65;;
6665;SDS011;3369;49.906;8.598;2023-09-07T09:13:29;3.60;;;3.40;;
6665;SDS011;3369;49.906;8.598;2023-09-07T09:15:56;3.90;;;3.50;;
6665;SDS011;3369;49.906;8.598;2023-09-07T09:18:25;3.92;;;3.63;;
6665;SDS011;3369;49.906;8.598;2023-09-07T09:20:52;4.05;;;3.35;;
6665;SDS011;3369;49.906;8.598;2023-09-07T09:23:18;3.20;;;3.00;;
6665;SDS011;3369;49.906;8.598;2023-09-07T09:25:43;3.83;;;3.45;;
6665;SDS011;3369;49.906;8.598;2023-09-07T09:28:09;3.60;;;3.30;;
6665;SDS011;3369;49.906;8.598;2023-09-07T09:30:35;7.05;;;4.78;;
6665;SDS011;3369;49.906;8.598;2023-09-07T09:33:02;7.03;;;4.20;;
6665;SDS011;3369;49.906;8.598;2023-09-07T09:35:30;5.93;;;3.50;;
6665;SDS011;3369;49.906;8.598;2023-09-07T09:37:59;3.78;;;3.47;;
6665;SDS011;3369;49.906;8.598;2023-09-07T09:40:30;5.10;;;3.30;;
6665;SDS011;3369;49.906;8.598;2023-09-07T09:42:59;3.40;;;3.17;;
6665;SDS011;3369;49.906;8.598;2023-09-07T09:45:26;3.65;;;3.35;;
6665;SDS011;3369;49.906;8.598;2023-09-07T09:47:53;3.53;;;3.22;;
6665;SDS011;3369;49.906;8.598;2023-09-07T09:50:21;4.55;;;3.47;;
6665;SDS011;3369;49.906;8.598;2023-09-07T09:52:47;3.85;;;3.55;;
6665;SDS011;3369;49.906;8.598;2023-09-07T09:55:13;3.30;;;3.10;;
6665;SDS011;3369;49.906;8.598;2023-09-07T09:57:40;3.70;;;3.28;;
6665;SDS011;3369;49.906;8.598;2023-09-07T10:00:06;3.63;;;3.33;;
6665;SDS011;3369;49.906;8.598;2023-09-07T10:03:07;3.78;;;3.47;;
6665;SDS011;3369;49.906;8.598;2023-09-07T10:05:36;4.43;;;4.03;;
6665;SDS011;3369;49.906;8.598;2023-09-07T10:08:07;3.63;;;3.35;;
6665;SDS011;3369;49.906;8.598;2023-09-07T10:10:35;3.78;;;3.47;;
6665;SDS011;3369;49.906;8.598;2023-09-07T10:13:01;4.43;;;3.88;;
6665;SDS011;3369;49.906;8.598;2023-09-07T10:15:28;3.47;;;3.17;;
6665;SDS011;3369;49.906;8.598;2023-09-07T10:20:46;4.28;;;3.88;;
6665;SDS011;3369;49.906;8.598;2023-09-07T10:23:14;4.82;;;2.88;;
6665;SDS011;3369;49.906;8.598;2023-09-07T10:25:40;3.75;;;3.45;;
6665;SDS011;3369;49.906;8.598;2023-09-07T10:28:17;5.13;;;3.33;;
6665;SDS011;3369;49.906;8.598;2023-09-07T10:31:02;3.90;;;3.60;;
6665;SDS011;3369;49.906;8.598;2023-09-07T10:33:30;3.90;;;3.60;;
6665;SDS011;3369;49.906;8.598;2023-09-07T10:35:59;2.97;;;2.78;;
6665;SDS011;3369;49.906;8.598;2023-09-07T10:38:26;3.80;;;3.47;;
6665;SDS011;3369;49.906;8.598;2023-09-07T10:40:56;3.30;;;3.00;;
6665;SDS011;3369;49.906;8.598;2023-09-07T10:43:26;4.93;;;3.40;;
6665;SDS011;3369;49.906;8.598;2023-09-07T10:45:55;3.53;;;3.22;;
6665;SDS011;3369;49.906;8.598;2023-09-07T10:48:22;3.83;;;3.20;;
6665;SDS011;3369;49.906;8.598;2023-09-07T10:50:53;3.45;;;3.15;;
6665;SDS011;3369;49.906;8.598;2023-09-07T10:53:29;3.55;;;3.30;;
6665;SDS011;3369;49.906;8.598;2023-09-07T10:55:57;4.53;;;4.13;;
6665;SDS011;3369;49.906;8.598;2023-09-07T10:58:30;3.60;;;3.30;;
6665;SDS011;3369;49.906;8.598;2023-09-07T11:00:59;4.05;;;3.63;;
6665;SDS011;3369;49.906;8.598;2023-09-07T11:03:26;3.67;;;3.10;;
6665;SDS011;3369;49.906;8.598;2023-09-07T11:05:53;4.05;;;3.50;;
6665;SDS011;3369;49.906;8.598;2023-09-07T11:08:22;3.83;;;3.40;;
6665;SDS011;3369;49.906;8.598;2023-09-07T11:10:49;5.22;;;2.95;;
6665;SDS011;3369;49.906;8.598;2023-09-07T11:13:17;3.75;;;3.47;;
6665;SDS011;3369;49.906;8.598;2023-09-07T11:15:43;4.20;;;3.72;;
6665;SDS011;3369;49.906;8.598;2023-09-07T11:18:09;3.58;;;3.28;;
6665;SDS011;3369;49.906;8.598;2023-09-07T11:20:35;3.55;;;3.00;;
6665;SDS011;3369;49.906;8.598;2023-09-07T11:23:02;4.40;;;3.60;;
6665;SDS011;3369;49.906;8.598;2023-09-07T11:25:35;3.03;;;2.83;;
6665;SDS011;3369;49.906;8.598;2023-09-07T11:28:02;3.22;;;3.03;;
6665;SDS011;3369;49.906;8.598;2023-09-07T11:30:29;4.10;;;3.33;;
6665;SDS011;3369;49.906;8.598;2023-09-07T11:33:02;3.00;;;2.80;;
6665;SDS011;3369;49.906;8.598;2023-09-07T11:35:32;3.40;;;3.10;;
6665;SDS011;3369;49.906;8.598;2023-09-07T11:37:59;4.20;;;3.20;;
6665;SDS011;3369;49.906;8.598;2023-09-07T11:40:26;3.72;;;3.20;;
6665;SDS011;3369;49.906;8.598;2023-09-07T11:42:51;3.33;;;3.13;;
6665;SDS011;3369;49.906;8.598;2023-09-07T11:45:17;3.38;;;3.10;;
6665;SDS011;3369;49.906;8.598;2023-09-07T11:47:44;3.33;;;3.13;;
6665;SDS011;3369;49.906;8.598;2023-09-07T11:50:10;3.03;;;2.83;;
6665;SDS011;3369;49.906;8.598;2023-09-07T11:52:36;2.97;;;2.78;;
6665;SDS011;3369;49.906;8.598;2023-09-07T11:55:02;3.50;;;3.20;;
6665;SDS011;3369;49.906;8.598;2023-09-07T11:58:13;4.93;;;2.63;;
6665;SDS011;3369;49.906;8.598;2023-09-07T12:00:18;3.38;;;3.08;;
6665;SDS011;3369;49.906;8.598;2023-09-07T12:02:45;3.60;;;3.30;;
6665;SDS011;3369;49.906;8.598;2023-09-07T12:05:10;3.72;;;3.38;;
6665;SDS011;3369;49.906;8.598;2023-09-07T12:07:42;3.10;;;2.90;;
6665;SDS011;3369;49.906;8.598;2023-09-07T12:10:11;3.13;;;2.83;;
6665;SDS011;3369;49.906;8.598;2023-09-07T12:12:41;3.03;;;2.75;;
6665;SDS011;3369;49.906;8.598;2023-09-07T12:15:09;2.95;;;2.75;;
6665;SDS011;3369;49.906;8.598;2023-09-07T12:17:36;3.70;;;3.40;;
6665;SDS011;3369;49.906;8.598;2023-09-07T12:20:02;3.65;;;3.22;;
6665;SDS011;3369;49.906;8.598;2023-09-07T12:22:33;3.70;;;3.10;;
6665;SDS011;3369;49.906;8.598;2023-09-07T12:25:01;3.13;;;2.92;;
6665;SDS011;3369;49.906;8.598;2023-09-07T12:27:27;3.28;;;3.08;;
6665;SDS011;3369;49.906;8.598;2023-09-07T12:29:53;3.65;;;3.30;;
6665;SDS011;3369;49.906;8.598;2023-09-07T12:32:21;3.90;;;3.30;;
6665;SDS011;3369;49.906;8.598;2023-09-07T12:34:47;3.20;;;3.00;;
6665;SDS011;3369;49.906;8.598;2023-09-07T12:37:18;3.53;;;3.22;;
6665;SDS011;3369;49.906;8.598;2023-09-07T12:39:44;4.18;;;3.33;;
6665;SDS011;3369;49.906;8.598;2023-09-07T12:42:10;3.17;;;2.97;;
6665;SDS011;3369;49.906;8.598;2023-09-07T12:44:36;3.38;;;2.97;;
6665;SDS011;3369;49.906;8.598;2023-09-07T12:47:01;3.53;;;3.22;;
6665;SDS011;3369;49.906;8.598;2023-09-07T12:49:28;3.35;;;3.00;;
6665;SDS011;3369;49.906;8.598;2023-09-07T12:51:54;4.45;;;3.00;;
6665;SDS011;3369;49.906;8.598;2023-09-07T12:54:19;4.00;;;3.42;;
6665;SDS011;3369;49.906;8.598;2023-09-07T12:56:45;3.90;;;3.40;;
6665;SDS011;3369;49.906;8.598;2023-09-07T12:59:11;3.58;;;3.30;;
6665;SDS011;3369;49.906;8.598;2023-09-07T13:01:36;3.15;;;2.90;;
6665;SDS011;3369;49.906;8.598;2023-09-07T13:04:02;3.55;;;2.97;;
6665;SDS011;3369;49.906;8.598;2023-09-07T13:06:28;3.25;;;2.95;;
6665;SDS011;3369;49.906;8.598;2023-09-07T13:08:53;3.35;;;3.05;;
6665;SDS011;3369;49.906;8.598;2023-09-07T13:11:19;3.55;;;3.05;;
6665;SDS011;3369;49.906;8.598;2023-09-07T13:13:45;3.38;;;3.08;;
6665;SDS011;3369;49.906;8.598;2023-09-07T13:16:10;4.70;;;3.20;;
6665;SDS011;3369;49.906;8.598;2023-09-07T13:18:37;3.13;;;2.92;;
6665;SDS011;3369;49.906;8.598;2023-09-07T13:21:03;3.08;;;2.88;;
6665;SDS011;3369;49.906;8.598;2023-09-07T13:23:29;4.05;;;3.00;;
6665;SDS011;3369;49.906;8.598;2023-09-07T13:25:56;2.92;;;2.72;;
6665;SDS011;3369;49.906;8.598;2023-09-07T13:28:22;3.45;;;2.83;;
6665;SDS011;3369;49.906;8.598;2023-09-07T13:30:48;2.80;;;2.60;;
6665;SDS011;3369;49.906;8.598;2023-09-07T13:33:17;5.38;;;3.50;;
6665;SDS011;3369;49.906;8.598;2023-09-07T13:35:43;3.85;;;3.30;;
6665;SDS011;3369;49.906;8.598;2023-09-07T13:38:09;3.10;;;2.80;;
6665;SDS011;3369;49.906;8.598;2023-09-07T13:40:35;3.38;;;2.90;;
6665;SDS011;3369;49.906;8.598;2023-09-07T13:43:00;3.15;;;2.95;;
6665;SDS011;3369;49.906;8.598;2023-09-07T13:45:27;2.97;;;2.78;;
6665;SDS011;3369;49.906;8.598;2023-09-07T13:47:56;3.55;;;2.78;;
6665;SDS011;3369;49.906;8.598;2023-09-07T13:50:22;3.38;;;3.08;;
6665;SDS011;3369;49.906;8.598;2023-09-07T13:52:47;3.50;;;3.08;;
6665;SDS011;3369;49.906;8.598;2023-09-07T13:55:14;3.35;;;3.10;;
6665;SDS011;3369;49.906;8.598;2023-09-07T13:57:40;3.50;;;3.20;;
6665;SDS011;3369;49.906;8.598;2023-09-07T14:00:06;2.80;;;2.60;;
6665;SDS011;3369;49.906;8.598;2023-09-07T14:02:32;2.70;;;2.50;;
6665;SDS011;3369;49.906;8.598;2023-09-07T14:04:59;2.78;;;2.58;;
6665;SDS011;3369;49.906;8.598;2023-09-07T14:07:25;2.92;;;2.30;;
6665;SDS011;3369;49.906;8.598;2023-09-07T14:09:53;3.40;;;3.10;;
6665;SDS011;3369;49.906;8.598;2023-09-07T14:12:19;2.88;;;2.67;;
6665;SDS011;3369;49.906;8.598;2023-09-07T14:14:45;2.70;;;2.50;;
6665;SDS011;3369;49.906;8.598;2023-09-07T14:17:11;2.83;;;2.63;;
6665;SDS011;3369;49.906;8.598;2023-09-07T14:19:36;4.60;;;2.97;;
6665;SDS011;3369;49.906;8.598;2023-09-07T14:22:02;3.05;;;2.85;;
6665;SDS011;3369;49.906;8.598;2023-09-07T14:24:28;3.20;;;2.90;;
6665;SDS011;3369;49.906;8.598;2023-09-07T14:26:54;3.78;;;2.83;;
6665;SDS011;3369;49.906;8.598;2023-09-07T14:29:19;2.95;;;2.70;;
6665;SDS011;3369;49.906;8.598;2023-09-07T14:31:45;2.70;;;2.47;;
6665;SDS011;3369;49.906;8.598;2023-09-07T14:34:11;3.75;;;3.28;;
6665;SDS011;3369;49.906;8.598;2023-09-07T14:36:38;3.10;;;2.90;;
6665;SDS011;3369;49.906;8.598;2023-09-07T14:39:07;4.47;;;2.83;;
6665;SDS011;3369;49.906;8.598;2023-09-07T14:41:36;3.38;;;3.08;;
6665;SDS011;3369;49.906;8.598;2023-09-07T14:44:02;3.80;;;3.00;;
6665;SDS011;3369;49.906;8.598;2023-09-07T14:46:28;3.03;;;2.72;;
6665;SDS011;3369;49.906;8.598;2023-09-07T14:48:54;3.47;;;2.78;;
6665;SDS011;3369;49.906;8.598;2023-09-07T14:51:21;3.03;;;2.83;;
6665;SDS011;3369;49.906;8.598;2023-09-07T14:53:47;3.30;;;3.10;;
6665;SDS011;3369;49.906;8.598;2023-09-07T14:56:12;2.83;;;2.63;;
6665;SDS011;3369;49.906;8.598;2023-09-07T14:58:38;2.90;;;2.70;;
6665;SDS011;3369;49.906;8.598;2023-09-07T15:01:04;2.90;;;2.70;;
6665;SDS011;3369;49.906;8.598;2023-09-07T15:03:30;2.90;;;2.70;;
6665;SDS011;3369;49.906;8.598;2023-09-07T15:05:56;2.83;;;2.63;;
6665;SDS011;3369;49.906;8.598;2023-09-07T15:08:22;2.75;;;2.53;;
6665;SDS011;3369;49.906;8.598;2023-09-07T15:10:48;3.15;;;2.92;;
6665;SDS011;3369;49.906;8.598;2023-09-07T15:13:14;3.38;;;2.72;;
6665;SDS011;3369;49.906;8.598;2023-09-07T15:15:40;2.67;;;2.47;;